sensor_id;sensor_type;location;lat;lon;timestamp;pressure;altitude;pressure_sealevel;temperature;humidity
32452;BME280;45528;52.102;5.242;2022-11-20T00:00:50;100990.0;;;4.21;54.52
32452;BME280;45528;52.102;5.242;2022-11-20T00:04:03;100989.0;;;4.16;54.79
32452;BME280;45528;52.102;5.242;2022-11-20T00:05:39;100986.0;;;4.07;55.03
32452;BME280;45528;52.102;5.242;2022-11-20T00:07:16;100990.0;;;4.07;54.79
32452;BME280;45528;52.102;5.242;2022-11-20T00:10:31;100995.0;;;4.04;54.8
32452;BME280;45528;52.102;5.242;2022-11-20T00:12:08;100997.0;;;3.96;54.73
32452;BME280;45528;52.102;5.242;2022-11-20T00:13:45;100993.0;;;3.73;55.0
32452;BME280;45528;52.102;5.242;2022-11-20T00:15:21;100997.0;;;3.74;55.4
32452;BME280;45528;52.102;5.242;2022-11-20T00:18:34;101000.0;;;3.85;55.23
32452;BME280;45528;52.102;5.242;2022-11-20T00:20:11;100994.0;;;3.89;54.83
32452;BME280;45528;52.102;5.242;2022-11-20T00:21:51;100992.0;;;3.98;54.94
32452;BME280;45528;52.102;5.242;2022-11-20T00:25:04;100993.0;;;4.03;55.2
32452;BME280;45528;52.102;5.242;2022-11-20T00:26:40;100988.0;;;3.98;54.7
32452;BME280;45528;52.102;5.242;2022-11-20T00:28:17;100987.0;;;3.93;54.86
32452;BME280;45528;52.102;5.242;2022-11-20T00:29:53;100985.0;;;3.93;54.71
32452;BME280;45528;52.102;5.242;2022-11-20T00:33:06;100981.0;;;3.88;54.65
32452;BME280;45528;52.102;5.242;2022-11-20T00:34:43;100975.0;;;3.84;54.66
32452;BME280;45528;52.102;5.242;2022-11-20T00:36:20;100971.0;;;3.79;54.67
32452;BME280;45528;52.102;5.242;2022-11-20T00:39:34;100967.0;;;3.74;54.87
32452;BME280;45528;52.102;5.242;2022-11-20T00:41:12;100966.0;;;3.7;54.81
32452;BME280;45528;52.102;5.242;2022-11-20T00:42:49;100960.0;;;3.68;54.84
32452;BME280;45528;52.102;5.242;2022-11-20T00:46:04;100959.0;;;3.7;54.88
32452;BME280;45528;52.102;5.242;2022-11-20T00:47:41;100957.0;;;3.71;55.35
32452;BME280;45528;52.102;5.242;2022-11-20T00:49:17;100955.0;;;3.68;55.42
32452;BME280;45528;52.102;5.242;2022-11-20T00:50:55;100955.0;;;3.61;55.36
32452;BME280;45528;52.102;5.242;2022-11-20T00:54:10;100955.0;;;3.6;55.45
32452;BME280;45528;52.102;5.242;2022-11-20T00:55:53;100955.0;;;3.59;55.34
32452;BME280;45528;52.102;5.242;2022-11-20T00:57:29;100959.0;;;3.51;55.45
32452;BME280;45528;52.102;5.242;2022-11-20T01:00:41;100961.0;;;3.43;55.47
32452;BME280;45528;52.102;5.242;2022-11-20T01:02:18;100963.0;;;3.45;55.74
32452;BME280;45528;52.102;5.242;2022-11-20T01:03:55;100964.0;;;3.65;55.72
32452;BME280;45528;52.102;5.242;2022-11-20T01:05:34;100962.0;;;3.6;55.75
32452;BME280;45528;52.102;5.242;2022-11-20T01:08:47;100962.0;;;3.57;55.69
32452;BME280;45528;52.102;5.242;2022-11-20T01:10:25;100966.0;;;3.53;55.58
32452;BME280;45528;52.102;5.242;2022-11-20T01:12:01;100969.0;;;3.51;55.33
32452;BME280;45528;52.102;5.242;2022-11-20T01:15:13;100971.0;;;3.57;55.46
32452;BME280;45528;52.102;5.242;2022-11-20T01:16:51;100968.0;;;3.54;55.26
32452;BME280;45528;52.102;5.242;2022-11-20T01:18:28;100966.0;;;3.47;55.24
32452;BME280;45528;52.102;5.242;2022-11-20T01:21:44;100966.0;;;3.35;55.3
32452;BME280;45528;52.102;5.242;2022-11-20T01:23:20;100963.0;;;3.31;55.36
32452;BME280;45528;52.102;5.242;2022-11-20T01:24:57;100959.0;;;3.32;55.08
32452;BME280;45528;52.102;5.242;2022-11-20T01:26:34;100956.0;;;3.34;55.13
32452;BME280;45528;52.102;5.242;2022-11-20T01:29:48;100958.0;;;3.38;55.38
32452;BME280;45528;52.102;5.242;2022-11-20T01:31:27;100958.0;;;3.37;55.56
32452;BME280;45528;52.102;5.242;2022-11-20T01:33:03;100958.0;;;3.2;55.43
32452;BME280;45528;52.102;5.242;2022-11-20T01:36:17;100953.0;;;3.19;55.44
32452;BME280;45528;52.102;5.242;2022-11-20T01:37:55;100948.0;;;3.27;55.64
32452;BME280;45528;52.102;5.242;2022-11-20T01:39:31;100942.0;;;3.3;55.55
32452;BME280;45528;52.102;5.242;2022-11-20T01:41:08;100940.0;;;3.24;55.08
32452;BME280;45528;52.102;5.242;2022-11-20T01:45:56;100944.0;;;3.22;55.44
32452;BME280;45528;52.102;5.242;2022-11-20T01:47:38;100950.0;;;3.25;55.7
32452;BME280;45528;52.102;5.242;2022-11-20T01:51:00;100953.0;;;3.37;55.15
32452;BME280;45528;52.102;5.242;2022-11-20T01:52:39;100951.0;;;3.38;55.09
32452;BME280;45528;52.102;5.242;2022-11-20T01:54:21;100951.0;;;3.35;55.29
32452;BME280;45528;52.102;5.242;2022-11-20T01:56:02;100955.0;;;3.34;55.2
32452;BME280;45528;52.102;5.242;2022-11-20T01:59:24;100955.0;;;3.23;55.07
32452;BME280;45528;52.102;5.242;2022-11-20T02:01:03;100946.0;;;3.28;55.42
32452;BME280;45528;52.102;5.242;2022-11-20T02:02:43;100945.0;;;3.23;55.03
32452;BME280;45528;52.102;5.242;2022-11-20T02:04:23;100948.0;;;3.21;55.12
32452;BME280;45528;52.102;5.242;2022-11-20T02:07:43;100952.0;;;3.26;55.19
32452;BME280;45528;52.102;5.242;2022-11-20T02:09:20;100950.0;;;3.25;55.45
32452;BME280;45528;52.102;5.242;2022-11-20T02:10:56;100941.0;;;3.2;55.91
32452;BME280;45528;52.102;5.242;2022-11-20T02:13:50;100941.0;;;3.25;55.97
32452;BME280;45528;52.102;5.242;2022-11-20T02:16:08;100945.0;;;3.39;56.17
32452;BME280;45528;52.102;5.242;2022-11-20T02:17:47;100938.0;;;3.46;55.39
32452;BME280;45528;52.102;5.242;2022-11-20T02:19:27;100937.0;;;3.39;55.37
32452;BME280;45528;52.102;5.242;2022-11-20T02:21:07;100931.0;;;3.28;55.05
32452;BME280;45528;52.102;5.242;2022-11-20T02:24:33;100923.0;;;3.17;55.0
32452;BME280;45528;52.102;5.242;2022-11-20T02:26:12;100922.0;;;3.03;55.04
32452;BME280;45528;52.102;5.242;2022-11-20T02:27:51;100921.0;;;2.98;54.99
32452;BME280;45528;52.102;5.242;2022-11-20T02:29:32;100922.0;;;2.95;55.29
32452;BME280;45528;52.102;5.242;2022-11-20T02:32:46;100921.0;;;2.91;55.49
32452;BME280;45528;52.102;5.242;2022-11-20T02:34:22;100926.0;;;2.75;56.07
32452;BME280;45528;52.102;5.242;2022-11-20T02:35:58;100924.0;;;2.73;56.0
32452;BME280;45528;52.102;5.242;2022-11-20T02:37:37;100927.0;;;2.84;55.3
32452;BME280;45528;52.102;5.242;2022-11-20T02:40:53;100928.0;;;2.9;55.51
32452;BME280;45528;52.102;5.242;2022-11-20T02:42:29;100928.0;;;2.95;55.64
32452;BME280;45528;52.102;5.242;2022-11-20T02:44:05;100928.0;;;2.91;55.64
32452;BME280;45528;52.102;5.242;2022-11-20T02:47:18;100927.0;;;2.92;55.11
32452;BME280;45528;52.102;5.242;2022-11-20T02:48:54;100930.0;;;2.78;55.58
32452;BME280;45528;52.102;5.242;2022-11-20T02:50:30;100926.0;;;2.86;55.39
32452;BME280;45528;52.102;5.242;2022-11-20T02:53:43;100930.0;;;2.97;54.5
32452;BME280;45528;52.102;5.242;2022-11-20T02:55:19;100923.0;;;2.97;54.58
32452;BME280;45528;52.102;5.242;2022-11-20T02:56:55;100925.0;;;2.9;54.45
32452;BME280;45528;52.102;5.242;2022-11-20T02:58:31;100923.0;;;2.79;54.5
32452;BME280;45528;52.102;5.242;2022-11-20T03:01:44;100922.0;;;2.83;54.55
32452;BME280;45528;52.102;5.242;2022-11-20T03:03:21;100919.0;;;2.82;54.53
32452;BME280;45528;52.102;5.242;2022-11-20T03:04:57;100915.0;;;2.79;54.85
32452;BME280;45528;52.102;5.242;2022-11-20T03:08:10;100916.0;;;2.74;54.95
32452;BME280;45528;52.102;5.242;2022-11-20T03:09:46;100917.0;;;2.74;55.09
32452;BME280;45528;52.102;5.242;2022-11-20T03:11:23;100914.0;;;2.82;55.33
32452;BME280;45528;52.102;5.242;2022-11-20T03:14:36;100905.0;;;2.91;54.94
32452;BME280;45528;52.102;5.242;2022-11-20T03:16:14;100912.0;;;2.83;54.92
32452;BME280;45528;52.102;5.242;2022-11-20T03:17:53;100905.0;;;2.81;54.97
32452;BME280;45528;52.102;5.242;2022-11-20T03:19:30;100901.0;;;2.83;55.17
32452;BME280;45528;52.102;5.242;2022-11-20T03:22:43;100902.0;;;2.84;55.35
32452;BME280;45528;52.102;5.242;2022-11-20T03:24:19;100900.0;;;2.87;55.42
32452;BME280;45528;52.102;5.242;2022-11-20T03:25:55;100897.0;;;2.8;55.59
32452;BME280;45528;52.102;5.242;2022-11-20T03:29:09;100899.0;;;2.75;55.35
32452;BME280;45528;52.102;5.242;2022-11-20T03:30:45;100905.0;;;2.69;55.32
32452;BME280;45528;52.102;5.242;2022-11-20T03:32:21;100901.0;;;2.75;55.56
32452;BME280;45528;52.102;5.242;2022-11-20T03:35:34;100899.0;;;2.83;55.2
32452;BME280;45528;52.102;5.242;2022-11-20T03:37:11;100900.0;;;2.83;55.1
32452;BME280;45528;52.102;5.242;2022-11-20T03:38:47;100902.0;;;2.75;54.91
32452;BME280;45528;52.102;5.242;2022-11-20T03:40:24;100899.0;;;2.79;55.3
32452;BME280;45528;52.102;5.242;2022-11-20T03:43:36;100896.0;;;2.74;55.2
32452;BME280;45528;52.102;5.242;2022-11-20T03:45:15;100903.0;;;2.71;55.33
32452;BME280;45528;52.102;5.242;2022-11-20T03:46:52;100890.0;;;2.76;55.51
32452;BME280;45528;52.102;5.242;2022-11-20T03:50:06;100893.0;;;2.74;55.27
32452;BME280;45528;52.102;5.242;2022-11-20T03:51:43;100890.0;;;2.77;55.32
32452;BME280;45528;52.102;5.242;2022-11-20T03:53:20;100887.0;;;2.72;55.26
32452;BME280;45528;52.102;5.242;2022-11-20T03:54:56;100877.0;;;2.79;55.39
32452;BME280;45528;52.102;5.242;2022-11-20T03:58:11;100878.0;;;2.69;55.18
32452;BME280;45528;52.102;5.242;2022-11-20T03:59:47;100873.0;;;2.72;55.32
32452;BME280;45528;52.102;5.242;2022-11-20T04:01:24;100873.0;;;2.75;55.66
32452;BME280;45528;52.102;5.242;2022-11-20T04:04:39;100865.0;;;2.78;55.37
32452;BME280;45528;52.102;5.242;2022-11-20T04:06:17;100868.0;;;2.68;54.9
32452;BME280;45528;52.102;5.242;2022-11-20T04:07:54;100869.0;;;2.68;55.21
32452;BME280;45528;52.102;5.242;2022-11-20T04:11:09;100872.0;;;2.59;55.26
32452;BME280;45528;52.102;5.242;2022-11-20T04:12:46;100866.0;;;2.57;55.22
32452;BME280;45528;52.102;5.242;2022-11-20T04:14:22;100863.0;;;2.52;55.05
32452;BME280;45528;52.102;5.242;2022-11-20T04:15:58;100862.0;;;2.44;55.14
32452;BME280;45528;52.102;5.242;2022-11-20T04:19:14;100851.0;;;2.42;55.45
32452;BME280;45528;52.102;5.242;2022-11-20T04:20:51;100853.0;;;2.4;55.67
32452;BME280;45528;52.102;5.242;2022-11-20T04:22:27;100852.0;;;2.44;56.04
32452;BME280;45528;52.102;5.242;2022-11-20T04:25:42;100855.0;;;2.5;55.5
32452;BME280;45528;52.102;5.242;2022-11-20T04:27:19;100855.0;;;2.56;55.28
32452;BME280;45528;52.102;5.242;2022-11-20T04:28:55;100855.0;;;2.52;55.45
32452;BME280;45528;52.102;5.242;2022-11-20T04:30:32;100856.0;;;2.56;55.14
32452;BME280;45528;52.102;5.242;2022-11-20T04:33:45;100855.0;;;2.56;55.24
32452;BME280;45528;52.102;5.242;2022-11-20T04:35:22;100847.0;;;2.6;55.33
32452;BME280;45528;52.102;5.242;2022-11-20T04:36:57;100842.0;;;2.6;55.38
32452;BME280;45528;52.102;5.242;2022-11-20T04:40:10;100847.0;;;2.44;55.45
32452;BME280;45528;52.102;5.242;2022-11-20T04:41:46;100848.0;;;2.41;55.46
32452;BME280;45528;52.102;5.242;2022-11-20T04:43:23;100850.0;;;2.5;55.58
32452;BME280;45528;52.102;5.242;2022-11-20T04:46:37;100843.0;;;2.56;55.42
32452;BME280;45528;52.102;5.242;2022-11-20T04:48:14;100850.0;;;2.5;55.09
32452;BME280;45528;52.102;5.242;2022-11-20T04:49:51;100856.0;;;2.52;55.26
32452;BME280;45528;52.102;5.242;2022-11-20T04:51:27;100846.0;;;2.61;55.0
32452;BME280;45528;52.102;5.242;2022-11-20T04:54:39;100839.0;;;2.58;55.22
32452;BME280;45528;52.102;5.242;2022-11-20T04:56:15;100841.0;;;2.5;55.19
32452;BME280;45528;52.102;5.242;2022-11-20T04:57:52;100834.0;;;2.46;54.8
32452;BME280;45528;52.102;5.242;2022-11-20T05:01:06;100830.0;;;2.56;55.1
32452;BME280;45528;52.102;5.242;2022-11-20T05:02:43;100835.0;;;2.35;54.85
32452;BME280;45528;52.102;5.242;2022-11-20T05:04:19;100830.0;;;2.31;54.86
32452;BME280;45528;52.102;5.242;2022-11-20T05:07:32;100823.0;;;2.44;54.89
32452;BME280;45528;52.102;5.242;2022-11-20T05:09:08;100821.0;;;2.38;55.02
32452;BME280;45528;52.102;5.242;2022-11-20T05:10:44;100821.0;;;2.27;55.02
32452;BME280;45528;52.102;5.242;2022-11-20T05:12:20;100820.0;;;2.23;55.16
32452;BME280;45528;52.102;5.242;2022-11-20T05:15:34;100819.0;;;2.17;54.7
32452;BME280;45528;52.102;5.242;2022-11-20T05:17:11;100816.0;;;2.13;55.11
32452;BME280;45528;52.102;5.242;2022-11-20T05:18:50;100815.0;;;2.05;55.33
32452;BME280;45528;52.102;5.242;2022-11-20T05:22:03;100814.0;;;2.09;55.23
32452;BME280;45528;52.102;5.242;2022-11-20T05:23:41;100816.0;;;2.04;54.95
32452;BME280;45528;52.102;5.242;2022-11-20T05:25:19;100810.0;;;2.12;55.35
32452;BME280;45528;52.102;5.242;2022-11-20T05:28:32;100807.0;;;2.12;55.19
32452;BME280;45528;52.102;5.242;2022-11-20T05:30:09;100805.0;;;2.06;55.06
32452;BME280;45528;52.102;5.242;2022-11-20T05:31:48;100802.0;;;2.08;54.81
32452;BME280;45528;52.102;5.242;2022-11-20T05:33:24;100805.0;;;1.99;55.07
32452;BME280;45528;52.102;5.242;2022-11-20T05:36:36;100810.0;;;2.07;55.04
32452;BME280;45528;52.102;5.242;2022-11-20T05:38:12;100805.0;;;2.07;54.64
32452;BME280;45528;52.102;5.242;2022-11-20T05:39:48;100802.0;;;1.98;53.99
32452;BME280;45528;52.102;5.242;2022-11-20T05:43:01;100808.0;;;1.97;54.62
32452;BME280;45528;52.102;5.242;2022-11-20T05:44:38;100813.0;;;1.9;55.07
32452;BME280;45528;52.102;5.242;2022-11-20T05:46:17;100814.0;;;1.97;54.75
32452;BME280;45528;52.102;5.242;2022-11-20T05:47:58;100813.0;;;1.88;55.01
32452;BME280;45528;52.102;5.242;2022-11-20T05:51:13;100807.0;;;1.9;54.86
32452;BME280;45528;52.102;5.242;2022-11-20T05:52:51;100808.0;;;1.96;55.2
32452;BME280;45528;52.102;5.242;2022-11-20T05:54:27;100808.0;;;2.04;54.78
32452;BME280;45528;52.102;5.242;2022-11-20T05:57:45;100824.0;;;2.02;54.66
32452;BME280;45528;52.102;5.242;2022-11-20T05:59:21;100827.0;;;2.02;54.84
32452;BME280;45528;52.102;5.242;2022-11-20T06:01:03;100833.0;;;2.04;54.87
32452;BME280;45528;52.102;5.242;2022-11-20T06:02:41;100841.0;;;2.07;54.73
32452;BME280;45528;52.102;5.242;2022-11-20T06:05:54;100845.0;;;2.04;54.73
32452;BME280;45528;52.102;5.242;2022-11-20T06:07:30;100848.0;;;2.07;54.92
32452;BME280;45528;52.102;5.242;2022-11-20T06:09:06;100840.0;;;2.06;55.03
32452;BME280;45528;52.102;5.242;2022-11-20T06:12:18;100840.0;;;2.1;55.21
32452;BME280;45528;52.102;5.242;2022-11-20T06:13:55;100840.0;;;2.16;55.39
32452;BME280;45528;52.102;5.242;2022-11-20T06:15:30;100838.0;;;2.13;55.01
32452;BME280;45528;52.102;5.242;2022-11-20T06:18:43;100839.0;;;2.21;55.24
32452;BME280;45528;52.102;5.242;2022-11-20T06:20:20;100836.0;;;2.29;55.31
32452;BME280;45528;52.102;5.242;2022-11-20T06:21:57;100832.0;;;2.32;55.04
32452;BME280;45528;52.102;5.242;2022-11-20T06:23:35;100830.0;;;2.31;55.08
32452;BME280;45528;52.102;5.242;2022-11-20T06:26:49;100830.0;;;2.27;54.84
32452;BME280;45528;52.102;5.242;2022-11-20T06:28:25;100830.0;;;2.23;55.01
32452;BME280;45528;52.102;5.242;2022-11-20T06:30:02;100830.0;;;2.23;55.28
32452;BME280;45528;52.102;5.242;2022-11-20T06:33:15;100830.0;;;2.21;55.05
32452;BME280;45528;52.102;5.242;2022-11-20T06:34:51;100828.0;;;2.19;55.11
32452;BME280;45528;52.102;5.242;2022-11-20T06:36:27;100833.0;;;2.23;54.93
32452;BME280;45528;52.102;5.242;2022-11-20T06:39:42;100830.0;;;2.25;55.2
32452;BME280;45528;52.102;5.242;2022-11-20T06:41:20;100834.0;;;2.29;55.6
32452;BME280;45528;52.102;5.242;2022-11-20T06:42:57;100835.0;;;2.35;55.5
32452;BME280;45528;52.102;5.242;2022-11-20T06:44:33;100834.0;;;2.36;55.3
32452;BME280;45528;52.102;5.242;2022-11-20T06:47:48;100830.0;;;2.31;55.6
32452;BME280;45528;52.102;5.242;2022-11-20T06:49:25;100833.0;;;2.29;55.18
32452;BME280;45528;52.102;5.242;2022-11-20T06:51:02;100827.0;;;2.36;55.76
32452;BME280;45528;52.102;5.242;2022-11-20T06:54:16;100827.0;;;2.34;55.15
32452;BME280;45528;52.102;5.242;2022-11-20T06:55:56;100824.0;;;2.33;55.43
32452;BME280;45528;52.102;5.242;2022-11-20T06:57:32;100821.0;;;2.37;55.34
32452;BME280;45528;52.102;5.242;2022-11-20T06:59:08;100817.0;;;2.34;55.09
32452;BME280;45528;52.102;5.242;2022-11-20T07:02:21;100817.0;;;2.27;55.54
32452;BME280;45528;52.102;5.242;2022-11-20T07:03:57;100816.0;;;2.27;55.18
32452;BME280;45528;52.102;5.242;2022-11-20T07:05:33;100808.0;;;2.31;55.3
32452;BME280;45528;52.102;5.242;2022-11-20T07:08:47;100802.0;;;2.38;55.51
32452;BME280;45528;52.102;5.242;2022-11-20T07:10:23;100806.0;;;2.44;55.37
32452;BME280;45528;52.102;5.242;2022-11-20T07:12:00;100808.0;;;2.42;55.35
32452;BME280;45528;52.102;5.242;2022-11-20T07:15:12;100805.0;;;2.41;54.94
32452;BME280;45528;52.102;5.242;2022-11-20T07:16:49;100805.0;;;2.41;55.19
32452;BME280;45528;52.102;5.242;2022-11-20T07:18:26;100802.0;;;2.37;55.42
32452;BME280;45528;52.102;5.242;2022-11-20T07:20:02;100799.0;;;2.39;55.46
32452;BME280;45528;52.102;5.242;2022-11-20T07:23:14;100798.0;;;2.39;55.8
32452;BME280;45528;52.102;5.242;2022-11-20T07:24:50;100793.0;;;2.46;55.53
32452;BME280;45528;52.102;5.242;2022-11-20T07:26:26;100792.0;;;2.54;55.63
32452;BME280;45528;52.102;5.242;2022-11-20T07:29:40;100788.0;;;2.5;55.48
32452;BME280;45528;52.102;5.242;2022-11-20T07:31:16;100789.0;;;2.56;55.69
32452;BME280;45528;52.102;5.242;2022-11-20T07:32:53;100796.0;;;2.56;55.82
32452;BME280;45528;52.102;5.242;2022-11-20T07:36:07;100795.0;;;2.6;55.67
32452;BME280;45528;52.102;5.242;2022-11-20T07:37:45;100799.0;;;2.58;55.8
32452;BME280;45528;52.102;5.242;2022-11-20T07:39:22;100795.0;;;2.59;55.94
32452;BME280;45528;52.102;5.242;2022-11-20T07:41:01;100800.0;;;2.62;56.05
32452;BME280;45528;52.102;5.242;2022-11-20T07:44:14;100801.0;;;2.7;55.93
32452;BME280;45528;52.102;5.242;2022-11-20T07:45:50;100799.0;;;2.79;55.77
32452;BME280;45528;52.102;5.242;2022-11-20T07:47:28;100805.0;;;2.87;55.76
32452;BME280;45528;52.102;5.242;2022-11-20T07:50:41;100806.0;;;2.92;56.22
32452;BME280;45528;52.102;5.242;2022-11-20T07:52:17;100806.0;;;3.05;56.46
32452;BME280;45528;52.102;5.242;2022-11-20T07:53:53;100807.0;;;3.16;56.46
32452;BME280;45528;52.102;5.242;2022-11-20T07:57:07;100805.0;;;3.25;56.51
32452;BME280;45528;52.102;5.242;2022-11-20T07:58:43;100805.0;;;3.29;56.67
32452;BME280;45528;52.102;5.242;2022-11-20T08:00:19;100805.0;;;3.41;56.4
32452;BME280;45528;52.102;5.242;2022-11-20T08:01:55;100799.0;;;3.47;56.42
32452;BME280;45528;52.102;5.242;2022-11-20T08:05:09;100797.0;;;3.49;56.45
32452;BME280;45528;52.102;5.242;2022-11-20T08:06:46;100791.0;;;3.62;56.49
32452;BME280;45528;52.102;5.242;2022-11-20T08:08:23;100784.0;;;3.7;56.79
32452;BME280;45528;52.102;5.242;2022-11-20T08:15:48;100775.0;;;3.92;57.0
32452;BME280;45528;52.102;5.242;2022-11-20T08:17:25;100781.0;;;4.03;57.02
32452;BME280;45528;52.102;5.242;2022-11-20T08:19:01;100778.0;;;4.2;56.82
32452;BME280;45528;52.102;5.242;2022-11-20T08:22:16;100783.0;;;4.3;56.84
32452;BME280;45528;52.102;5.242;2022-11-20T08:23:51;100780.0;;;4.38;56.36
32452;BME280;45528;52.102;5.242;2022-11-20T08:25:29;100776.0;;;4.54;56.62
32452;BME280;45528;52.102;5.242;2022-11-20T08:27:06;100782.0;;;4.62;56.42
32452;BME280;45528;52.102;5.242;2022-11-20T08:30:18;100782.0;;;4.7;56.24
32452;BME280;45528;52.102;5.242;2022-11-20T08:31:54;100782.0;;;4.74;56.25
32452;BME280;45528;52.102;5.242;2022-11-20T08:33:32;100784.0;;;4.82;56.33
32452;BME280;45528;52.102;5.242;2022-11-20T08:36:45;100781.0;;;4.84;55.77
32452;BME280;45528;52.102;5.242;2022-11-20T08:38:21;100791.0;;;4.82;56.04
32452;BME280;45528;52.102;5.242;2022-11-20T08:39:57;100793.0;;;4.91;56.1
32452;BME280;45528;52.102;5.242;2022-11-20T08:41:34;100797.0;;;4.99;55.89
32452;BME280;45528;52.102;5.242;2022-11-20T08:44:46;100790.0;;;5.0;55.86
32452;BME280;45528;52.102;5.242;2022-11-20T08:46:23;100792.0;;;4.97;55.73
32452;BME280;45528;52.102;5.242;2022-11-20T08:48:00;100790.0;;;5.03;55.96
32452;BME280;45528;52.102;5.242;2022-11-20T08:51:14;100793.0;;;5.04;55.72
32452;BME280;45528;52.102;5.242;2022-11-20T08:52:51;100789.0;;;5.04;55.8
32452;BME280;45528;52.102;5.242;2022-11-20T08:54:27;100790.0;;;5.03;55.84
32452;BME280;45528;52.102;5.242;2022-11-20T08:57:40;100790.0;;;5.09;56.19
32452;BME280;45528;52.102;5.242;2022-11-20T08:59:17;100790.0;;;5.15;56.36
32452;BME280;45528;52.102;5.242;2022-11-20T09:00:53;100793.0;;;5.24;56.53
32452;BME280;45528;52.102;5.242;2022-11-20T09:02:30;100791.0;;;5.38;56.28
32452;BME280;45528;52.102;5.242;2022-11-20T09:05:43;100790.0;;;5.45;56.41
32452;BME280;45528;52.102;5.242;2022-11-20T09:07:19;100785.0;;;5.49;55.96
32452;BME280;45528;52.102;5.242;2022-11-20T09:08:55;100782.0;;;5.51;56.23
32452;BME280;45528;52.102;5.242;2022-11-20T09:12:08;100783.0;;;5.63;56.29
32452;BME280;45528;52.102;5.242;2022-11-20T09:13:44;100780.0;;;5.72;55.95
32452;BME280;45528;52.102;5.242;2022-11-20T09:15:21;100773.0;;;5.71;55.74
32452;BME280;45528;52.102;5.242;2022-11-20T09:18:36;100767.0;;;5.7;56.03
32452;BME280;45528;52.102;5.242;2022-11-20T09:20:13;100760.0;;;5.8;55.81
32452;BME280;45528;52.102;5.242;2022-11-20T09:21:50;100757.0;;;5.87;55.54
32452;BME280;45528;52.102;5.242;2022-11-20T09:23:30;100763.0;;;5.77;55.35
32452;BME280;45528;52.102;5.242;2022-11-20T09:26:44;100764.0;;;5.66;55.86
32452;BME280;45528;52.102;5.242;2022-11-20T09:28:21;100750.0;;;5.71;56.12
32452;BME280;45528;52.102;5.242;2022-11-20T09:29:57;100748.0;;;5.77;56.08
32452;BME280;45528;52.102;5.242;2022-11-20T09:33:09;100743.0;;;5.82;55.97
32452;BME280;45528;52.102;5.242;2022-11-20T09:34:45;100734.0;;;5.87;55.83
32452;BME280;45528;52.102;5.242;2022-11-20T09:36:22;100735.0;;;5.9;56.06
32452;BME280;45528;52.102;5.242;2022-11-20T09:39:34;100736.0;;;5.89;56.34
32452;BME280;45528;52.102;5.242;2022-11-20T09:41:30;100733.0;;;5.96;56.21
32452;BME280;45528;52.102;5.242;2022-11-20T09:43:28;100726.0;;;5.99;56.3
